createdAt,value
2022-10-18T00:07:53.235Z,99100
2022-10-18T00:19:53.281Z,99110
2022-10-18T00:31:53.170Z,99090
2022-10-18T00:43:53.278Z,99080
2022-10-18T00:55:53.196Z,99080
2022-10-18T01:07:53.284Z,99080
2022-10-18T01:19:53.254Z,99070
2022-10-18T01:31:55.340Z,99080
2022-10-18T01:43:53.184Z,99060
2022-10-18T01:55:53.445Z,99060
2022-10-18T02:08:05.338Z,99040
2022-10-18T02:19:53.200Z,99040
2022-10-18T02:31:53.238Z,99050
2022-10-18T02:43:53.167Z,99030
2022-10-18T02:55:53.166Z,99050
2022-10-18T03:07:53.241Z,99050
2022-10-18T03:19:53.214Z,99030
2022-10-18T03:31:53.287Z,99030
2022-10-18T03:43:53.285Z,99040
2022-10-18T03:55:53.263Z,99040
2022-10-18T04:07:53.165Z,99050
2022-10-18T04:19:53.165Z,99040
2022-10-18T04:31:53.263Z,99050
2022-10-18T04:43:53.266Z,99070
2022-10-18T04:55:53.163Z,99060
2022-10-18T05:07:53.252Z,99060
2022-10-18T05:19:53.226Z,99050
2022-10-18T05:31:53.173Z,99060
2022-10-18T05:43:53.284Z,99050
2022-10-18T05:55:53.262Z,99060
2022-10-18T06:07:53.265Z,99070
2022-10-18T06:19:53.174Z,99080
2022-10-18T06:31:53.253Z,99100
2022-10-18T06:43:53.160Z,99110
2022-10-18T06:55:53.245Z,99120
2022-10-18T07:07:56.349Z,99130
2022-10-18T07:19:53.292Z,99120
2022-10-18T07:31:53.169Z,99120
2022-10-18T07:43:53.246Z,99140
2022-10-18T07:55:53.225Z,99150
2022-10-18T08:07:53.184Z,99170
2022-10-18T08:20:05.011Z,99180
2022-10-18T08:31:53.176Z,99190
2022-10-18T08:43:53.163Z,99200
2022-10-18T08:55:53.189Z,99210
2022-10-18T09:07:53.167Z,99210
2022-10-18T09:19:53.332Z,99220
2022-10-18T09:31:53.275Z,99220
2022-10-18T09:43:53.165Z,99240
2022-10-18T09:55:53.278Z,99250
2022-10-18T10:07:53.170Z,99270
2022-10-18T10:19:53.289Z,99270
2022-10-18T10:31:53.293Z,99270
2022-10-18T10:43:53.167Z,99270
2022-10-18T10:55:53.228Z,99280
2022-10-18T11:07:53.427Z,99280
2022-10-18T11:19:53.278Z,99290
2022-10-18T11:31:53.167Z,99270
2022-10-18T11:44:01.770Z,99260
2022-10-18T11:55:53.167Z,99280
2022-10-18T12:07:53.282Z,99300
2022-10-18T12:19:53.268Z,99280
2022-10-18T12:31:53.279Z,99270
2022-10-18T12:43:53.254Z,99280
2022-10-18T12:55:53.214Z,99280
2022-10-18T13:07:53.279Z,99280
2022-10-18T13:20:07.688Z,99260
2022-10-18T13:31:53.174Z,99270
2022-10-18T13:43:53.194Z,99250
2022-10-18T13:55:55.835Z,99270
2022-10-18T14:07:53.256Z,99280
2022-10-18T14:19:53.224Z,99270
2022-10-18T14:31:53.218Z,99270
2022-10-18T14:43:53.286Z,99280
2022-10-18T14:55:53.257Z,99290
2022-10-18T15:07:53.231Z,99280
2022-10-18T15:19:53.166Z,99280
2022-10-18T15:31:53.288Z,99270
2022-10-18T15:43:53.163Z,99280
2022-10-18T15:55:53.241Z,99270
2022-10-18T16:07:53.229Z,99270
2022-10-18T16:19:53.395Z,99280
2022-10-18T16:31:53.171Z,99270
2022-10-18T16:43:53.181Z,99270
2022-10-18T16:55:53.163Z,99310
2022-10-18T17:07:53.169Z,99310
2022-10-18T17:19:53.222Z,99320
2022-10-18T17:31:53.241Z,99330
2022-10-18T17:43:53.170Z,99330
2022-10-18T17:55:53.165Z,99320
2022-10-18T18:07:54.091Z,99320
2022-10-18T18:19:53.185Z,99330
2022-10-18T18:31:53.171Z,99320
2022-10-18T18:43:53.261Z,99330
2022-10-18T18:55:53.174Z,99320
2022-10-18T19:07:53.282Z,99320
2022-10-18T19:19:53.281Z,99330
2022-10-18T19:31:53.262Z,99320
2022-10-18T19:43:53.260Z,99320
2022-10-18T19:55:53.283Z,99310
2022-10-18T20:07:53.169Z,99330
2022-10-18T20:19:53.167Z,99320
2022-10-18T20:31:53.233Z,99330
2022-10-18T20:43:53.283Z,99320
2022-10-18T20:55:53.261Z,99340
2022-10-18T21:07:53.316Z,99340
2022-10-18T21:19:53.217Z,99330
2022-10-18T21:31:53.326Z,99320
2022-10-18T21:43:53.292Z,99320
2022-10-18T21:55:53.169Z,99310
2022-10-18T22:07:53.211Z,99300
2022-10-18T22:19:53.279Z,99310
2022-10-18T22:31:53.186Z,99300
2022-10-18T22:43:53.173Z,99280
2022-10-18T22:55:53.168Z,99280
2022-10-18T23:07:53.168Z,99280
2022-10-18T23:19:53.218Z,99270
2022-10-18T23:31:53.187Z,99280
2022-10-18T23:43:53.169Z,99270
2022-10-18T23:55:53.162Z,99270
